Homestead Village, Missouri
Current Conditions -  °F | °C
As of 7:15 PM on Sunday 21 Dec 2014 (Local Time) from KGPH Reporting Station
Overcast Overcast  
Wind Chill: 37°   Ceiling: 1100
Heat Index: 43°   Visibility: 10mi
Dew Point: 41°   Wind: 12mph
Humidity: 93%   Direction: 140°SE
Pressure: 29.82"   Gusts: 16mph
Location:  39.3039°N, 94.2206°W
Report Text: KGPH 220115Z AUTO 14010G14KT 10SM OVC011 06/05 A2982 RMK AO2
Loading
Personal Weather Stations






























Interactive Weather Map New forecast layout! Learn more

10-Day Weather Forecast

Advertisements
Track Severe Weather on mobile